AHN weather

Athens Ben Epps Airport
Athens, Georgia, United States

Public forecast

Using degrees Fahrenheit for public forecast. Weather courtesy of forecast.io.

METAR (pilot weather report)

Retrieved 2019/06/16 17:51 UTC (39 minutes ago):

KAHN 161751Z VRB05KT 10SM FEW042 SCT050 BKN085 31/20 A3006 RMK AO2 SLP170 T03060200 10317 20217 58016

TAF (pilot weather forecast)

Retrieved 2019/06/16 18:34 UTC (0 seconds ago):

TAF KAHN 161731Z 1618/1718 24006KT P6SM SCT040 FM162100 22005KT P6SM BKN050 FM170100 18003KT P6SM FEW250 FM171400 25004KT P6SM SKC FM171600 24004KT P6SM FEW035